Time;durP1;ratioP1;P1;durP2;ratioP2;P2;SDS_P1;SDS_P2;PMS_P1;PMS_P2;Temp;Humidity;BMP_temperature;BMP_pressure;BME280_temperature;BME280_humidity;BME280_pressure;Samples;Min_cycle;Max_cycle;Signal;HPM_P1;HPM_P2
2021/10/29 00:01:25;;;;;;;23.97;13.57;;;8.70;99.90;;;;;;5112735;28;20250;-75
2021/10/29 00:03:52;;;;;;;21.50;12.17;;;8.60;99.90;;;;;;5112897;28;20220;-74
2021/10/29 00:06:19;;;;;;;22.13;12.80;;;8.50;99.90;;;;;;5113110;28;20670;-75
2021/10/29 00:08:46;;;;;;;23.73;12.63;;;8.40;99.90;;;;;;5112880;28;20739;-74
2021/10/29 00:11:13;;;;;;;24.60;12.67;;;8.30;99.90;;;;;;5112936;28;20197;-75
2021/10/29 00:13:40;;;;;;;24.13;13.67;;;8.40;99.90;;;;;;5113949;27;20205;-75
2021/10/29 00:16:08;;;;;;;23.70;13.23;;;8.50;99.90;;;;;;5112528;27;20201;-74
2021/10/29 00:18:35;;;;;;;20.67;12.33;;;8.50;99.90;;;;;;5111633;28;20205;-75
2021/10/29 00:21:02;;;;;;;22.93;12.77;;;8.50;99.90;;;;;;5112997;28;20239;-74
2021/10/29 00:23:31;;;;;;;23.20;13.37;;;8.50;99.90;;;;;;5112590;28;20760;-75
2021/10/29 00:25:58;;;;;;;21.67;12.10;;;8.60;99.90;;;;;;5112569;28;20225;-74
2021/10/29 00:28:25;;;;;;;22.37;13.13;;;8.50;99.90;;;;;;5110854;28;20296;-75
2021/10/29 00:30:53;;;;;;;22.50;13.07;;;8.60;99.90;;;;;;5111264;28;20216;-75
2021/10/29 00:33:21;;;;;;;25.77;13.83;;;8.60;99.90;;;;;;5112203;28;20219;-74
2021/10/29 00:35:48;;;;;;;23.70;13.50;;;8.60;99.90;;;;;;5112620;28;20209;-75
2021/10/29 00:38:15;;;;;;;24.57;12.47;;;8.60;99.90;;;;;;5112804;28;20197;-74
2021/10/29 00:40:43;;;;;;;22.63;13.23;;;8.50;99.90;;;;;;5112928;28;20201;-75
2021/10/29 00:43:11;;;;;;;26.77;14.13;;;8.50;99.90;;;;;;5113977;28;20205;-75
2021/10/29 00:45:38;;;;;;;24.73;13.90;;;8.50;99.90;;;;;;5111670;28;20225;-74
2021/10/29 00:48:08;;;;;;;24.13;14.23;;;8.50;99.90;;;;;;5107532;28;20614;-74
2021/10/29 00:50:36;;;;;;;24.00;14.10;;;8.50;99.90;;;;;;5110603;28;20213;-74
2021/10/29 00:53:03;;;;;;;22.83;13.67;;;8.50;99.90;;;;;;5107261;28;20234;-74
2021/10/29 00:55:31;;;;;;;23.57;13.20;;;8.60;99.90;;;;;;5110856;28;20189;-75
2021/10/29 00:57:58;;;;;;;25.97;14.57;;;8.40;99.90;;;;;;5112586;28;20254;-75
2021/10/29 01:00:25;;;;;;;25.67;14.23;;;8.40;99.90;;;;;;5110474;28;20231;-75
2021/10/29 01:02:53;;;;;;;24.23;12.93;;;8.40;99.90;;;;;;5111916;28;20201;-75
2021/10/29 01:05:20;;;;;;;24.53;13.33;;;8.30;99.90;;;;;;5112128;28;20221;-75
2021/10/29 01:07:48;;;;;;;21.47;12.53;;;8.20;99.90;;;;;;5112685;28;20270;-75
2021/10/29 01:10:15;;;;;;;25.00;13.40;;;8.10;99.90;;;;;;5112254;28;20198;-75
2021/10/29 01:12:43;;;;;;;24.13;13.83;;;8.00;99.90;;;;;;5111418;28;20254;-74
2021/10/29 01:15:11;;;;;;;24.17;11.90;;;8.10;99.90;;;;;;5111901;28;20215;-75
2021/10/29 01:17:38;;;;;;;23.07;13.50;;;7.90;99.90;;;;;;5111793;28;20209;-75
2021/10/29 01:20:07;;;;;;;23.53;13.23;;;7.90;99.90;;;;;;5112414;28;20253;-75
2021/10/29 01:22:36;;;;;;;21.37;11.87;;;7.90;99.90;;;;;;5111495;28;20565;-75
2021/10/29 01:25:04;;;;;;;24.43;11.53;;;7.80;99.90;;;;;;5112137;28;20225;-75
2021/10/29 01:27:31;;;;;;;21.13;11.97;;;7.80;99.90;;;;;;5111906;28;20242;-75
2021/10/29 01:29:59;;;;;;;21.73;11.77;;;7.70;99.90;;;;;;5112584;28;20566;-75
2021/10/29 01:32:26;;;;;;;20.80;11.60;;;7.70;99.90;;;;;;5111333;28;20220;-75
2021/10/29 01:34:53;;;;;;;24.17;12.87;;;7.80;99.90;;;;;;5111897;28;20232;-75
2021/10/29 01:37:21;;;;;;;22.63;12.03;;;7.90;99.90;;;;;;5111901;28;20197;-74
2021/10/29 01:39:49;;;;;;;22.70;11.87;;;7.80;99.90;;;;;;5112103;28;20634;-74
2021/10/29 01:42:16;;;;;;;21.93;12.13;;;7.70;99.90;;;;;;5111438;28;20239;-75
2021/10/29 01:44:45;;;;;;;22.60;11.97;;;7.60;99.90;;;;;;5110953;28;20708;-74
2021/10/29 01:47:12;;;;;;;20.70;11.03;;;7.60;99.90;;;;;;5112147;28;20205;-75
2021/10/29 01:49:41;;;;;;;19.80;11.67;;;7.40;99.90;;;;;;5110992;28;20198;-74
2021/10/29 01:52:09;;;;;;;22.87;11.87;;;7.50;99.90;;;;;;5111075;28;20257;-74
2021/10/29 01:54:36;;;;;;;23.00;13.27;;;7.20;99.90;;;;;;5111789;28;20633;-75
2021/10/29 01:57:05;;;;;;;22.07;11.77;;;7.20;99.90;;;;;;5104067;28;20209;-75
2021/10/29 01:59:32;;;;;;;26.17;12.53;;;7.10;99.90;;;;;;5110873;28;20602;-74
2021/10/29 02:01:59;;;;;;;22.60;11.63;;;7.20;99.90;;;;;;5111758;28;20320;-75
2021/10/29 02:04:27;;;;;;;26.80;12.27;;;7.20;99.90;;;;;;5110954;28;20209;-74
2021/10/29 02:06:54;;;;;;;22.17;12.27;;;7.10;99.90;;;;;;5110644;28;20269;-77
2021/10/29 02:09:21;;;;;;;21.77;11.63;;;7.20;99.90;;;;;;5110858;28;20189;-78
2021/10/29 02:11:48;;;;;;;22.63;12.43;;;7.10;99.90;;;;;;5112004;28;20643;-77
2021/10/29 02:14:17;;;;;;;19.83;11.47;;;7.00;99.90;;;;;;5110693;28;20627;-77
2021/10/29 02:16:44;;;;;;;24.63;12.40;;;6.90;99.90;;;;;;5111957;28;20197;-77
2021/10/29 02:19:11;;;;;;;22.23;11.87;;;7.00;99.90;;;;;;5111650;28;20647;-77
2021/10/29 02:21:38;;;;;;;24.63;12.10;;;6.90;99.90;;;;;;5111775;28;20246;-77
2021/10/29 02:24:06;;;;;;;21.43;11.60;;;7.00;99.90;;;;;;5110584;28;20201;-77
2021/10/29 02:26:34;;;;;;;23.00;11.00;;;7.10;99.90;;;;;;5111116;28;20229;-77
2021/10/29 02:29:02;;;;;;;23.53;12.03;;;7.00;99.90;;;;;;5111859;28;20550;-77
2021/10/29 02:31:30;;;;;;;20.30;11.73;;;7.20;99.90;;;;;;5111311;28;20604;-77
2021/10/29 02:33:58;;;;;;;23.07;11.93;;;7.40;99.90;;;;;;5109742;28;20209;-77
2021/10/29 02:36:25;;;;;;;21.10;11.70;;;7.50;99.90;;;;;;5111562;28;20201;-77
2021/10/29 02:38:52;;;;;;;21.27;12.23;;;7.60;99.90;;;;;;5111524;28;20250;-77
2021/10/29 02:41:19;;;;;;;23.43;12.70;;;7.40;99.90;;;;;;5110456;28;20257;-77
2021/10/29 02:43:46;;;;;;;22.37;11.93;;;7.10;99.90;;;;;;5111574;28;20270;-77
2021/10/29 02:46:13;;;;;;;22.40;11.87;;;7.20;99.90;;;;;;5110458;28;20547;-78
2021/10/29 02:48:42;;;;;;;21.70;11.03;;;7.30;99.90;;;;;;5111467;28;20254;-78
2021/10/29 02:51:10;;;;;;;21.33;11.47;;;7.50;99.90;;;;;;5112005;28;20231;-77
2021/10/29 02:53:37;;;;;;;20.63;11.53;;;7.50;99.90;;;;;;5115247;28;20227;-78
2021/10/29 02:56:05;;;;;;;21.63;12.53;;;7.50;99.90;;;;;;5109390;28;20205;-78
2021/10/29 02:58:32;;;;;;;20.13;11.13;;;7.30;99.90;;;;;;5113735;28;20221;-78
2021/10/29 03:00:59;;;;;;;21.33;11.37;;;7.20;99.90;;;;;;5114133;28;20213;-77
2021/10/29 03:03:26;;;;;;;23.27;12.17;;;7.10;99.90;;;;;;5114714;28;20197;-78
2021/10/29 03:05:55;;;;;;;22.80;11.93;;;7.00;99.90;;;;;;5114657;27;20747;-78
2021/10/29 03:08:23;;;;;;;21.80;11.77;;;6.80;99.90;;;;;;5114468;28;20228;-78
2021/10/29 03:10:51;;;;;;;21.20;11.00;;;6.70;99.90;;;;;;5113790;28;20204;-78
2021/10/29 03:13:18;;;;;;;23.13;12.00;;;6.60;99.90;;;;;;5112769;28;20238;-78
2021/10/29 03:15:46;;;;;;;22.87;13.23;;;6.60;99.90;;;;;;5114378;27;20240;-78
2021/10/29 03:18:13;;;;;;;19.40;11.20;;;6.50;99.90;;;;;;5121130;27;20271;-78
2021/10/29 03:20:40;;;;;;;21.70;11.77;;;6.30;99.90;;;;;;5122049;27;20197;-78
2021/10/29 03:23:09;;;;;;;21.97;11.53;;;6.40;99.90;;;;;;5116319;27;20205;-78
2021/10/29 03:25:36;;;;;;;21.57;11.50;;;6.40;99.90;;;;;;5123878;27;20282;-78
2021/10/29 03:28:03;;;;;;;20.63;10.63;;;6.40;99.90;;;;;;5112418;28;20593;-78
2021/10/29 03:30:30;;;;;;;24.27;11.80;;;6.50;99.90;;;;;;5114410;28;20222;-77
2021/10/29 03:32:58;;;;;;;20.53;11.63;;;6.60;99.90;;;;;;5115055;28;20719;-78
2021/10/29 03:35:25;;;;;;;20.73;11.63;;;6.60;99.90;;;;;;5116451;27;20206;-78
2021/10/29 03:38:14;;;;;;;21.00;11.27;;;6.80;99.90;;;;;;5114263;28;20200;-77
2021/10/29 03:40:49;;;;;;;32.27;18.83;;;6.70;99.90;;;;;;5116103;27;20344;-77
2021/10/29 03:43:21;;;;;;;25.50;14.63;;;6.80;99.90;;;;;;5123132;27;20196;-77
2021/10/29 03:45:51;;;;;;;26.03;12.80;;;7.00;99.90;;;;;;5127603;27;20245;-77
2021/10/29 03:48:22;;;;;;;24.13;11.93;;;7.00;99.90;;;;;;5109280;27;20205;-77
2021/10/29 03:51:01;;;;;;;23.77;12.93;;;7.20;99.90;;;;;;5123691;27;20646;-77
2021/10/29 03:53:33;;;;;;;29.57;16.23;;;7.50;99.90;;;;;;5131781;27;20203;-77
2021/10/29 03:56:02;;;;;;;24.27;12.57;;;7.50;99.90;;;;;;5131427;27;20192;-77
2021/10/29 03:58:29;;;;;;;26.47;13.40;;;7.60;99.90;;;;;;5114761;27;20204;-78
2021/10/29 04:00:57;;;;;;;22.63;12.40;;;7.70;99.90;;;;;;5122891;27;20196;-77
2021/10/29 04:03:24;;;;;;;23.47;12.27;;;7.50;99.90;;;;;;5131149;27;20212;-78
2021/10/29 04:05:51;;;;;;;23.23;11.90;;;7.50;99.90;;;;;;5112857;27;20257;-78
2021/10/29 04:08:18;;;;;;;24.37;12.53;;;7.40;99.90;;;;;;5112821;28;20205;-78
2021/10/29 04:10:45;;;;;;;24.93;12.60;;;7.50;99.90;;;;;;5123649;27;20690;-77
2021/10/29 04:13:14;;;;;;;23.73;13.23;;;7.50;99.90;;;;;;5114065;28;20211;-77
2021/10/29 04:15:41;;;;;;;28.97;15.47;;;7.60;99.90;;;;;;5121965;27;20650;-77
2021/10/29 04:18:08;;;;;;;25.57;13.97;;;7.70;99.90;;;;;;5113450;28;20223;-75
2021/10/29 04:20:36;;;;;;;28.73;14.50;;;7.60;99.90;;;;;;5113556;27;20240;-75
2021/10/29 04:23:04;;;;;;;28.50;14.87;;;7.60;99.90;;;;;;5110075;27;20193;-75
2021/10/29 04:25:31;;;;;;;28.27;15.47;;;7.70;99.90;;;;;;5117631;27;20253;-74
2021/10/29 04:27:59;;;;;;;27.43;15.03;;;7.60;99.90;;;;;;5113902;28;20712;-74
2021/10/29 04:30:29;;;;;;;26.30;14.67;;;7.70;99.90;;;;;;5130167;27;20291;-74
2021/10/29 04:32:57;;;;;;;27.90;15.73;;;7.60;99.90;;;;;;5123805;27;20201;-74
2021/10/29 04:35:24;;;;;;;28.83;14.33;;;7.80;99.90;;;;;;5118221;27;20525;-74
2021/10/29 04:37:51;;;;;;;27.63;14.87;;;7.80;99.90;;;;;;5123465;27;20193;-74
2021/10/29 04:40:18;;;;;;;30.07;15.37;;;7.70;99.90;;;;;;5105503;27;20193;-74
2021/10/29 04:42:45;;;;;;;28.90;15.43;;;8.00;99.90;;;;;;5113091;28;20659;-74
2021/10/29 04:45:12;;;;;;;26.97;15.00;;;7.90;99.90;;;;;;5115397;27;20272;-74
2021/10/29 04:47:41;;;;;;;26.97;15.37;;;7.80;99.90;;;;;;5120639;27;20217;-74
2021/10/29 04:50:09;;;;;;;28.47;15.93;;;7.90;99.90;;;;;;5104883;27;20646;-74
2021/10/29 04:52:36;;;;;;;29.13;16.83;;;7.90;99.90;;;;;;5109352;27;20201;-74
2021/10/29 04:55:03;;;;;;;26.37;15.23;;;7.70;99.90;;;;;;5110442;27;20254;-76
2021/10/29 04:57:30;;;;;;;25.93;15.53;;;7.60;99.90;;;;;;5113879;27;20231;-77
2021/10/29 04:59:58;;;;;;;27.27;16.33;;;7.40;99.90;;;;;;5111540;28;20711;-77
2021/10/29 05:02:25;;;;;;;29.83;15.47;;;7.50;99.90;;;;;;5109076;28;20225;-70
2021/10/29 05:04:53;;;;;;;27.90;15.13;;;7.70;99.90;;;;;;5108483;27;20208;-70
2021/10/29 05:07:20;;;;;;;31.87;16.47;;;8.00;99.90;;;;;;5112109;27;20217;-68
2021/10/29 05:09:47;;;;;;;29.90;15.33;;;8.00;99.90;;;;;;5110298;27;20307;-70
2021/10/29 05:12:15;;;;;;;27.17;15.33;;;8.00;99.90;;;;;;5111720;27;20254;-70
2021/10/29 05:14:42;;;;;;;26.73;14.97;;;8.00;99.90;;;;;;5107817;28;20269;-70
2021/10/29 05:17:09;;;;;;;28.13;14.57;;;7.80;99.90;;;;;;5112315;28;20647;-69
2021/10/29 05:19:35;;;;;;;29.03;14.93;;;7.80;99.90;;;;;;5112024;28;20233;-69
2021/10/29 05:22:04;;;;;;;25.80;14.70;;;7.90;99.90;;;;;;5123864;27;20249;-69
2021/10/29 05:24:31;;;;;;;27.47;14.63;;;8.00;99.90;;;;;;5111840;27;20205;-69
2021/10/29 05:26:58;;;;;;;31.37;16.47;;;8.10;99.90;;;;;;5108863;27;20248;-69
2021/10/29 05:29:25;;;;;;;29.77;16.13;;;8.30;99.90;;;;;;5111018;28;20655;-74
2021/10/29 05:31:53;;;;;;;27.40;14.83;;;8.20;99.90;;;;;;5115495;27;20205;-69
2021/10/29 05:34:20;;;;;;;28.10;15.50;;;8.30;99.90;;;;;;5119606;27;20195;-69
2021/10/29 05:36:49;;;;;;;30.47;15.83;;;8.30;99.90;;;;;;5112817;27;20500;-69
2021/10/29 05:39:17;;;;;;;25.53;14.60;;;8.30;99.90;;;;;;5125582;27;20369;-69
2021/10/29 05:41:48;;;;;;;29.87;15.63;;;8.20;99.90;;;;;;5111895;27;20196;-79
2021/10/29 05:44:16;;;;;;;31.43;16.67;;;8.30;99.90;;;;;;5110308;27;20209;-69
2021/10/29 05:46:43;;;;;;;30.00;16.10;;;8.50;99.90;;;;;;5114369;27;20212;-68
2021/10/29 05:49:13;;;;;;;31.13;16.40;;;8.50;99.90;;;;;;5111153;28;20248;-68
2021/10/29 05:51:43;;;;;;;29.50;16.57;;;8.50;99.90;;;;;;5110892;28;20200;-69
2021/10/29 05:54:13;;;;;;;29.63;16.27;;;8.50;99.90;;;;;;5111767;28;20313;-69
2021/10/29 05:56:42;;;;;;;28.00;15.00;;;8.40;99.90;;;;;;5112170;28;20715;-69
2021/10/29 05:59:09;;;;;;;29.97;16.70;;;8.20;99.90;;;;;;5110803;28;20205;-69
2021/10/29 06:01:35;;;;;;;27.10;15.77;;;8.30;99.90;;;;;;5112014;28;20209;-69
2021/10/29 06:04:03;;;;;;;28.23;14.73;;;8.10;99.90;;;;;;5112261;28;20240;-69
2021/10/29 06:06:30;;;;;;;31.07;16.43;;;7.80;99.90;;;;;;5112404;28;20277;-74
2021/10/29 06:08:56;;;;;;;28.10;15.73;;;7.80;99.90;;;;;;5112058;28;20258;-74
2021/10/29 06:11:26;;;;;;;29.33;17.20;;;7.80;99.90;;;;;;5111500;28;20617;-74
2021/10/29 06:13:55;;;;;;;28.80;16.07;;;7.50;99.90;;;;;;5112333;28;20574;-74
2021/10/29 06:16:23;;;;;;;29.87;17.53;;;7.70;99.90;;;;;;5110928;28;20300;-74
2021/10/29 06:18:50;;;;;;;29.03;15.97;;;7.50;99.90;;;;;;5110608;28;20205;-75
2021/10/29 06:21:21;;;;;;;29.03;16.50;;;7.50;99.90;;;;;;5111956;28;20201;-74
2021/10/29 06:23:58;;;;;;;29.97;16.37;;;7.50;99.90;;;;;;5112277;28;20205;-74
2021/10/29 06:26:27;;;;;;;29.17;16.13;;;7.50;99.90;;;;;;5113346;28;20299;-74
2021/10/29 06:28:55;;;;;;;27.73;15.27;;;7.60;99.90;;;;;;5116317;28;20200;-74
2021/10/29 06:31:22;;;;;;;30.77;15.20;;;7.60;99.90;;;;;;5115311;28;20247;-74
2021/10/29 06:33:49;;;;;;;26.87;15.40;;;7.60;99.90;;;;;;5116464;28;20305;-75
2021/10/29 06:36:17;;;;;;;27.80;15.77;;;7.50;99.90;;;;;;5115434;28;20266;-74
2021/10/29 06:38:44;;;;;;;29.50;15.27;;;7.60;99.90;;;;;;5115416;28;20731;-74
2021/10/29 06:41:12;;;;;;;25.67;15.03;;;7.60;99.90;;;;;;5115876;28;20211;-74
2021/10/29 06:43:42;;;;;;;26.43;15.90;;;7.60;99.90;;;;;;5116048;28;20253;-74
2021/10/29 06:49:08;;;;;;;28.70;16.00;;;7.50;99.90;;;;;;5115194;28;20208;-74
2021/10/29 06:59:55;;;;;;;27.63;14.90;;;7.80;99.90;;;;;;5114903;28;20608;-74
2021/10/29 07:41:00;;;;;;;22.57;12.73;;;9.00;99.90;;;;;;5114822;28;20235;-70
2021/10/29 07:43:33;;;;;;;23.67;13.07;;;9.20;99.90;;;;;;5114652;28;20197;-70
2021/10/29 07:46:00;;;;;;;24.23;12.77;;;9.40;99.90;;;;;;5113324;28;20212;-70
2021/10/29 07:48:29;;;;;;;23.20;12.67;;;9.60;99.90;;;;;;5112042;27;20225;-70
2021/10/29 07:50:58;;;;;;;26.77;15.20;;;9.70;99.90;;;;;;5114648;28;20659;-69
2021/10/29 07:53:26;;;;;;;24.77;14.67;;;9.70;99.90;;;;;;5114448;28;20240;-70
2021/10/29 07:55:53;;;;;;;23.60;13.53;;;9.70;99.90;;;;;;5113882;28;20297;-70
2021/10/29 07:58:20;;;;;;;24.43;14.33;;;9.80;99.90;;;;;;5114940;28;20201;-69
2021/10/29 08:00:47;;;;;;;24.63;13.13;;;10.00;99.90;;;;;;5113945;28;20609;-69
2021/10/29 08:03:14;;;;;;;22.63;12.97;;;10.20;99.90;;;;;;5114843;28;20694;-70
2021/10/29 08:05:45;;;;;;;22.13;13.23;;;10.20;99.90;;;;;;5114266;28;20212;-70
2021/10/29 08:08:16;;;;;;;21.33;12.50;;;10.40;99.90;;;;;;5114267;28;20643;-78
2021/10/29 08:10:44;;;;;;;25.83;13.87;;;10.50;99.90;;;;;;5113257;28;20234;-78
2021/10/29 08:13:11;;;;;;;20.27;11.77;;;10.70;99.90;;;;;;5114790;28;20258;-78
2021/10/29 08:15:40;;;;;;;21.33;12.43;;;10.70;99.90;;;;;;5113258;28;20254;-78
2021/10/29 08:18:09;;;;;;;22.20;12.80;;;10.80;99.90;;;;;;5114511;28;20576;-78
2021/10/29 08:20:36;;;;;;;25.00;13.40;;;11.10;99.90;;;;;;5114597;28;20724;-78
2021/10/29 08:23:04;;;;;;;22.67;12.77;;;10.80;99.90;;;;;;5114042;28;20193;-78
2021/10/29 08:25:33;;;;;;;20.60;12.33;;;10.70;99.90;;;;;;5113477;28;20205;-78
2021/10/29 08:28:00;;;;;;;20.83;12.40;;;10.70;99.90;;;;;;5113891;28;20262;-77
2021/10/29 08:30:27;;;;;;;21.37;12.27;;;10.80;99.90;;;;;;5113015;28;20213;-78
2021/10/29 08:32:54;;;;;;;22.97;12.90;;;11.00;99.90;;;;;;5113460;28;20209;-78
2021/10/29 08:35:22;;;;;;;23.17;12.50;;;11.10;99.90;;;;;;5112386;28;20614;-77
2021/10/29 08:37:51;;;;;;;24.57;13.30;;;11.10;99.90;;;;;;5112639;28;20244;-78
2021/10/29 08:40:20;;;;;;;20.70;12.23;;;11.20;99.90;;;;;;5113106;28;20719;-78
2021/10/29 08:42:49;;;;;;;17.63;10.43;;;11.10;99.90;;;;;;5114232;28;20558;-78
2021/10/29 08:45:17;;;;;;;20.50;11.57;;;11.30;99.90;;;;;;5112799;28;20212;-75
2021/10/29 08:47:45;;;;;;;21.17;10.30;;;11.70;99.90;;;;;;5104811;28;20226;-74
2021/10/29 08:50:16;;;;;;;18.67;9.83;;;11.70;99.90;;;;;;5104714;28;20223;-74
2021/10/29 08:52:46;;;;;;;18.43;10.17;;;11.80;99.90;;;;;;5103447;28;20542;-75
2021/10/29 08:55:14;;;;;;;19.03;10.13;;;11.90;99.90;;;;;;5106814;28;20567;-74
2021/10/29 08:57:44;;;;;;;14.30;8.93;;;11.80;99.90;;;;;;5113374;28;20193;-74
2021/10/29 09:00:18;;;;;;;16.83;9.60;;;12.00;99.90;;;;;;5112136;28;20215;-75
2021/10/29 09:02:51;;;;;;;15.20;9.13;;;12.10;99.90;;;;;;5111155;28;20204;-74
2021/10/29 09:05:24;;;;;;;14.30;8.10;;;12.20;99.90;;;;;;5112945;28;20212;-74
2021/10/29 09:08:07;;;;;;;13.63;8.30;;;12.30;99.90;;;;;;5113063;28;20690;-74
2021/10/29 09:32:58;;;;;;;12.97;7.40;;;13.00;99.90;;;;;;5112356;28;20665;-74
2021/10/29 09:35:27;;;;;;;10.57;6.37;;;13.30;99.90;;;;;;5112442;28;20262;-75
2021/10/29 09:37:58;;;;;;;10.70;6.43;;;13.50;99.90;;;;;;5112374;28;20238;-74
2021/10/29 09:40:26;;;;;;;9.47;5.63;;;13.60;99.90;;;;;;5111227;28;20197;-74
2021/10/29 09:42:55;;;;;;;7.87;5.43;;;13.80;99.90;;;;;;5112362;28;20204;-74
2021/10/29 09:45:27;;;;;;;9.30;5.87;;;14.10;99.90;;;;;;5112465;28;20201;-74
2021/10/29 09:48:12;;;;;;;8.33;5.77;;;14.00;99.90;;;;;;5112444;28;20682;-74
2021/10/29 09:50:47;;;;;;;10.43;5.07;;;14.20;99.90;;;;;;5111682;28;20282;-75
2021/10/29 09:53:34;;;;;;;11.30;5.70;;;14.20;99.90;;;;;;5112741;28;20642;-74
2021/10/29 09:56:04;;;;;;;9.03;5.77;;;14.40;99.90;;;;;;5112084;28;20341;-75
2021/10/29 09:58:32;;;;;;;8.80;5.67;;;14.20;99.90;;;;;;5111951;28;20205;-74
2021/10/29 10:01:01;;;;;;;10.30;5.50;;;14.20;99.90;;;;;;5111757;28;20281;-75
2021/10/29 10:03:30;;;;;;;8.70;5.83;;;14.30;99.90;;;;;;5110410;28;20246;-75
2021/10/29 10:05:59;;;;;;;10.77;5.70;;;14.40;99.90;;;;;;5111572;28;20216;-75
2021/10/29 10:08:27;;;;;;;10.97;5.97;;;14.80;99.90;;;;;;5111171;28;20244;-74
2021/10/29 10:10:58;;;;;;;10.00;5.43;;;14.80;99.90;;;;;;5110855;28;20520;-74
2021/10/29 10:13:26;;;;;;;9.73;5.27;;;14.90;99.90;;;;;;5104857;27;20698;-75
2021/10/29 10:15:55;;;;;;;8.40;5.80;;;15.20;99.90;;;;;;5104700;27;20209;-75
2021/10/29 10:18:23;;;;;;;10.70;6.37;;;15.20;99.90;;;;;;5100108;28;20668;-75
2021/10/29 10:20:53;;;;;;;9.37;5.63;;;15.40;99.90;;;;;;5098351;28;20287;-75
2021/10/29 10:23:27;;;;;;;11.63;5.63;;;15.50;99.90;;;;;;5098490;28;20292;-75
2021/10/29 10:26:16;;;;;;;7.90;4.93;;;15.50;99.90;;;;;;5102195;28;20224;-75
2021/10/29 10:29:00;;;;;;;8.23;4.73;;;15.60;99.90;;;;;;5130576;27;20225;-75
2021/10/29 10:40:41;;;;;;;6.83;4.47;;;16.10;99.90;;;;;;5100671;28;20650;-75
2021/10/29 10:43:22;;;;;;;8.15;4.68;;;16.40;99.90;;;;;;5106978;28;20307;-75
2021/10/29 10:45:55;;;;;;;7.35;4.63;;;16.40;99.90;;;;;;5104438;28;20233;-75
2021/10/29 10:48:26;;;;;;;6.45;3.90;;;16.40;99.90;;;;;;5105830;28;20270;-75
2021/10/29 10:51:00;;;;;;;5.47;3.92;;;16.40;99.90;;;;;;5111424;28;20201;-73
2021/10/29 10:53:53;;;;;;;6.25;4.00;;;16.50;99.90;;;;;;5111342;28;20207;-74
2021/10/29 10:56:34;;;;;;;7.13;4.05;;;16.80;98.30;;;;;;5110522;28;20197;-78
2021/10/29 10:59:31;;;;;;;6.97;3.65;;;16.80;99.00;;;;;;5108009;28;20659;-78
2021/10/29 11:05:26;;;;;;;6.95;4.40;;;17.10;98.70;;;;;;5107645;28;20197;-78
2021/10/29 11:10:59;;;;;;;7.47;4.10;;;17.20;98.00;;;;;;5108308;28;20200;-77
2021/10/29 11:13:27;;;;;;;7.25;4.63;;;17.00;98.80;;;;;;5112080;28;20223;-78
2021/10/29 11:16:05;;;;;;;7.00;3.85;;;16.70;98.50;;;;;;5114121;28;20212;-78
2021/10/29 11:18:38;;;;;;;5.30;4.05;;;16.50;99.60;;;;;;5101988;28;20563;-78
2021/10/29 11:21:16;;;;;;;5.88;4.00;;;16.60;99.60;;;;;;5103417;27;20709;-77
2021/10/29 11:23:52;;;;;;;5.88;4.22;;;16.40;99.00;;;;;;5107534;28;20213;-78
2021/10/29 11:26:28;;;;;;;6.57;4.13;;;16.30;99.10;;;;;;5100038;27;20700;-77
2021/10/29 11:28:56;;;;;;;4.93;3.83;;;16.20;99.60;;;;;;5099029;28;20954;-78
2021/10/29 11:31:26;;;;;;;8.93;3.83;;;16.40;99.90;;;;;;5112026;28;20662;-78
2021/10/29 11:33:56;;;;;;;6.30;4.32;;;16.40;99.90;;;;;;5112811;28;20220;-78
2021/10/29 11:36:26;;;;;;;7.07;4.43;;;16.70;99.90;;;;;;5112854;28;20205;-77
2021/10/29 11:38:55;;;;;;;8.02;4.65;;;16.80;99.40;;;;;;5113011;28;20296;-78
2021/10/29 11:41:26;;;;;;;5.20;4.38;;;17.10;98.90;;;;;;5112796;28;20630;-78
2021/10/29 11:43:58;;;;;;;12.80;7.68;;;16.80;99.70;;;;;;5110621;28;20729;-77
2021/10/29 11:46:25;;;;;;;6.45;4.35;;;16.50;99.60;;;;;;5111687;28;20304;-78
2021/10/29 11:49:02;;;;;;;5.45;3.95;;;16.40;98.70;;;;;;5095369;28;20270;-78
2021/10/29 11:51:30;;;;;;;7.07;4.47;;;16.40;99.60;;;;;;5097790;28;20221;-78
2021/10/29 11:54:02;;;;;;;6.00;4.00;;;16.10;99.90;;;;;;5095521;28;20206;-78
2021/10/29 11:56:36;;;;;;;7.40;4.80;;;16.20;99.90;;;;;;5105915;27;20241;-77
2021/10/29 12:07:20;;;;;;;7.35;4.70;;;16.60;99.40;;;;;;5109753;27;20244;-78
2021/10/29 12:09:49;;;;;;;6.33;4.70;;;16.90;99.70;;;;;;5109970;28;20220;-77
2021/10/29 12:12:21;;;;;;;9.10;4.50;;;18.60;97.20;;;;;;5107965;28;20250;-77
2021/10/29 12:14:50;;;;;;;6.68;4.57;;;19.30;95.00;;;;;;5108754;28;20204;-77
2021/10/29 12:17:22;;;;;;;5.10;3.97;;;18.80;94.80;;;;;;5109799;28;20201;-77
2021/10/29 12:19:53;;;;;;;7.65;4.45;;;18.50;95.10;;;;;;5108010;28;20300;-78
2021/10/29 12:25:21;;;;;;;7.05;4.18;;;18.30;95.70;;;;;;5086690;27;20988;-77
2021/10/29 12:27:54;;;;;;;8.50;4.35;;;18.30;95.20;;;;;;5051689;27;20212;-77
2021/10/29 12:30:35;;;;;;;7.05;4.40;;;17.50;96.50;;;;;;5042435;28;20214;-78
2021/10/29 13:03:41;;;;;;;6.22;4.68;;;17.00;97.80;;;;;;5039181;28;20230;-77
2021/10/29 13:06:09;;;;;;;6.78;4.80;;;16.70;97.90;;;;;;5040156;28;20519;-77
2021/10/29 13:08:39;;;;;;;7.15;5.05;;;16.80;97.90;;;;;;5041686;27;20207;-78
2021/10/29 13:11:07;;;;;;;6.95;5.00;;;17.20;96.90;;;;;;5050494;27;20211;-78
2021/10/29 13:13:39;;;;;;;12.38;5.35;;;16.70;98.00;;;;;;5052749;27;20584;-77
2021/10/29 13:16:09;;;;;;;9.30;5.40;;;16.40;97.70;;;;;;5054062;27;20732;-77
2021/10/29 13:18:48;;;;;;;8.25;5.10;;;16.40;98.30;;;;;;5045586;27;20223;-77
2021/10/29 13:22:09;;;;;;;6.97;4.75;;;16.00;98.50;;;;;;5073105;27;20222;-77
2021/10/29 13:24:58;;;;;;;8.27;4.80;;;16.10;99.10;;;;;;5035220;28;20215;-77
2021/10/29 13:35:51;;;;;;;7.70;4.60;;;16.10;99.90;;;;;;5032037;28;20254;-77
2021/10/29 13:58:16;;;;;;;8.17;4.23;;;15.40;99.90;;;;;;5047920;27;20722;-77
2021/10/29 14:28:39;;;;;;;5.60;4.43;;;14.90;99.90;;;;;;5036778;27;20195;-78
2021/10/29 14:31:11;;;;;;;8.70;4.47;;;15.00;99.90;;;;;;5029388;27;20757;-78
2021/10/29 14:33:43;;;;;;;6.60;4.47;;;15.00;99.90;;;;;;5034509;28;20211;-78
2021/10/29 14:36:12;;;;;;;7.80;4.37;;;14.90;99.90;;;;;;5028940;28;20252;-78
2021/10/29 14:38:48;;;;;;;9.73;4.80;;;14.90;99.90;;;;;;5038762;27;20307;-78
2021/10/29 14:41:18;;;;;;;7.13;4.40;;;14.90;99.90;;;;;;5030089;27;20290;-78
2021/10/29 14:43:49;;;;;;;8.87;4.63;;;14.80;99.90;;;;;;5032345;28;20306;-79
2021/10/29 14:46:30;;;;;;;8.17;4.90;;;14.80;99.90;;;;;;5028174;28;20264;-78
2021/10/29 14:49:03;;;;;;;8.07;4.70;;;14.80;99.90;;;;;;5027680;28;20207;-78
2021/10/29 15:03:01;;;;;;;8.33;4.67;;;15.00;99.90;;;;;;5031467;28;20206;-78
2021/10/29 15:25:10;;;;;;;7.27;4.83;;;14.70;99.90;;;;;;5070376;27;20241;-78
2021/10/29 15:27:45;;;;;;;7.03;4.73;;;14.60;99.90;;;;;;5059374;27;20243;-78
2021/10/29 15:30:16;;;;;;;7.90;4.97;;;14.60;99.90;;;;;;5053006;27;20583;-78
2021/10/29 15:41:16;;;;;;;8.13;5.47;;;14.50;99.90;;;;;;5061202;27;20584;-78
2021/10/29 15:46:38;;;;;;;6.13;4.43;;;14.50;99.90;;;;;;5048078;27;20200;-78
2021/10/29 15:49:09;;;;;;;7.30;4.80;;;14.50;99.90;;;;;;5074269;27;20206;-77
2021/10/29 15:51:37;;;;;;;6.70;4.60;;;14.30;99.90;;;;;;5066543;27;20285;-78
2021/10/29 15:54:07;;;;;;;7.67;4.93;;;14.40;99.90;;;;;;5041003;27;20204;-78
2021/10/29 15:56:40;;;;;;;8.53;5.17;;;14.30;99.90;;;;;;5066712;27;20241;-77
2021/10/29 15:59:19;;;;;;;8.70;5.20;;;14.10;99.90;;;;;;5051092;27;20215;-77
2021/10/29 16:01:50;;;;;;;9.43;5.47;;;14.20;99.90;;;;;;5048536;27;20264;-77
2021/10/29 16:18:00;;;;;;;7.67;5.00;;;13.80;99.90;;;;;;5034858;28;20256;-77
2021/10/29 16:20:28;;;;;;;8.67;5.73;;;13.90;99.90;;;;;;5047385;28;20248;-77
2021/10/29 16:22:57;;;;;;;8.87;4.97;;;14.00;99.90;;;;;;5045122;28;20652;-77
2021/10/29 16:25:29;;;;;;;6.87;4.87;;;14.00;99.90;;;;;;5051103;28;20231;-77
2021/10/29 16:28:00;;;;;;;7.27;4.80;;;13.90;99.90;;;;;;5050721;28;20197;-77
2021/10/29 16:30:28;;;;;;;10.80;6.00;;;13.90;99.90;;;;;;5049727;28;20204;-77
2021/10/29 16:33:08;;;;;;;9.03;5.93;;;13.90;99.90;;;;;;5039305;28;20260;-77
2021/10/29 16:35:38;;;;;;;10.77;6.10;;;13.90;99.90;;;;;;5039480;28;20703;-77
2021/10/29 16:38:06;;;;;;;6.97;5.07;;;13.80;99.90;;;;;;5046283;28;20268;-77
2021/10/29 16:40:34;;;;;;;6.77;5.67;;;13.80;99.90;;;;;;5043195;28;20610;-78
2021/10/29 16:43:05;;;;;;;7.10;4.43;;;13.90;99.90;;;;;;5062631;28;20208;-77
2021/10/29 16:45:32;;;;;;;7.47;4.70;;;14.00;99.90;;;;;;5045286;28;20242;-77
2021/10/29 16:48:00;;;;;;;9.87;5.80;;;13.90;99.90;;;;;;5038544;28;20210;-77
2021/10/29 16:50:27;;;;;;;11.57;5.80;;;14.10;99.90;;;;;;5035851;28;20210;-77
2021/10/29 16:52:54;;;;;;;7.17;4.80;;;14.00;99.90;;;;;;5051136;28;20208;-77